Lancelin, Australia
Current Conditions -  °F | °C
As of 9:00 PM on Saturday 22 Nov 2014 (Local Time) from YPEA Reporting Station
Overcast Overcast  
Wind Chill: 59°   Ceiling: 4000
Heat Index: 59°   Visibility: 6mi
Dew Point: 54°   Wind: 6mph
Humidity: 82%   Direction: 230°SW
Pressure: 29.97"   Gusts: NA
Location:  31.02°S, 115.33°E
Report Text: YPEA 221300Z AUTO 23005KT 9999 // OVC040 15/12 Q1015
Loading
Personal Weather Stations






























Interactive Weather Map New forecast layout! Learn more

10-Day Weather Forecast

Advertisements
Track Severe Weather on mobile